Time;durP1;ratioP1;P1;durP2;ratioP2;P2;SDS_P1;SDS_P2;PMS_P1;PMS_P2;Temp;Humidity;BMP_temperature;BMP_pressure;BME280_temperature;BME280_humidity;BME280_pressure;Samples;Min_cycle;Max_cycle;Signal;HPM_P1;HPM_P2
2021/10/30 00:01:36;;;;;;;56.13;42.63;;;8.50;99.90;;;;;;6324168;28;20464;-66
2021/10/30 00:04:41;;;;;;;45.73;39.33;;;8.40;99.90;;;;;;6322933;28;20486;-67
2021/10/30 00:07:44;;;;;;;47.37;40.97;;;8.40;99.90;;;;;;6322857;28;21245;-64
2021/10/30 00:10:47;;;;;;;56.30;42.57;;;8.30;99.90;;;;;;6322355;28;20476;-64
2021/10/30 00:13:50;;;;;;;50.33;40.80;;;8.30;99.90;;;;;;6321830;28;20479;-62
2021/10/30 00:16:53;;;;;;;55.17;42.17;;;8.20;99.90;;;;;;6322512;28;20537;-64
2021/10/30 00:19:58;;;;;;;50.17;40.77;;;8.10;99.90;;;;;;6323088;28;20538;-65
2021/10/30 00:23:01;;;;;;;48.87;40.00;;;8.10;99.90;;;;;;6317587;28;20468;-65
2021/10/30 00:26:04;;;;;;;48.70;38.73;;;8.10;99.90;;;;;;6322725;28;20468;-64
2021/10/30 00:29:08;;;;;;;50.60;38.03;;;8.10;99.90;;;;;;6322209;28;20473;-65
2021/10/30 00:32:11;;;;;;;50.93;41.37;;;8.10;99.90;;;;;;6323736;28;21002;-64
2021/10/30 00:35:15;;;;;;;45.17;38.07;;;8.10;99.90;;;;;;6324731;28;20476;-65
2021/10/30 00:38:18;;;;;;;57.67;39.80;;;8.10;99.90;;;;;;6324534;28;20797;-65
2021/10/30 00:41:21;;;;;;;49.67;39.07;;;8.10;99.90;;;;;;6324914;28;20454;-65
2021/10/30 00:44:25;;;;;;;45.83;37.43;;;8.10;99.90;;;;;;6324818;28;20432;-64
2021/10/30 00:47:28;;;;;;;89.57;40.50;;;8.10;99.90;;;;;;6329883;28;20440;-64
2021/10/30 00:50:33;;;;;;;62.30;40.20;;;8.00;99.90;;;;;;6330040;28;20782;-64
2021/10/30 00:53:36;;;;;;;46.93;37.33;;;8.00;99.90;;;;;;6330233;28;20479;-64
2021/10/30 00:56:42;;;;;;;45.87;37.20;;;8.00;99.90;;;;;;6330336;28;20452;-65
2021/10/30 00:59:48;;;;;;;45.97;37.43;;;7.90;99.90;;;;;;6329776;28;20487;-64
2021/10/30 01:02:51;;;;;;;50.27;38.97;;;8.00;99.90;;;;;;6330432;28;20944;-62
2021/10/30 01:05:56;;;;;;;49.67;39.00;;;7.90;99.90;;;;;;6331044;28;20472;-63
2021/10/30 01:08:59;;;;;;;47.93;38.80;;;7.90;99.90;;;;;;6329501;28;20483;-63
2021/10/30 01:12:02;;;;;;;47.47;36.40;;;8.00;99.90;;;;;;6329426;28;20468;-63
2021/10/30 01:15:07;;;;;;;77.00;37.53;;;8.00;99.90;;;;;;6329038;28;20464;-63
2021/10/30 01:18:10;;;;;;;47.90;37.97;;;8.00;99.90;;;;;;6329279;28;20468;-63
2021/10/30 01:21:24;;;;;;;57.83;39.53;;;8.00;99.90;;;;;;6329077;28;20476;-63
2021/10/30 01:24:28;;;;;;;60.70;43.20;;;8.00;99.90;;;;;;6329383;28;20522;-63
2021/10/30 01:27:31;;;;;;;77.47;40.90;;;8.00;99.90;;;;;;6328907;28;20498;-63
2021/10/30 01:30:34;;;;;;;57.73;42.50;;;7.90;99.90;;;;;;6328787;28;20476;-63
2021/10/30 01:33:37;;;;;;;71.70;42.77;;;7.90;99.90;;;;;;6328384;28;20537;-63
2021/10/30 01:36:42;;;;;;;58.33;41.13;;;8.00;99.90;;;;;;6328719;28;20468;-63
2021/10/30 01:39:45;;;;;;;54.00;41.33;;;8.00;99.90;;;;;;6328591;28;20472;-63
2021/10/30 01:42:54;;;;;;;59.30;41.93;;;7.90;99.90;;;;;;6328734;28;20967;-63
2021/10/30 01:45:57;;;;;;;54.27;40.70;;;7.90;99.90;;;;;;6328640;28;20471;-64
2021/10/30 01:49:01;;;;;;;51.40;38.83;;;7.90;99.90;;;;;;6318641;28;20554;-64
2021/10/30 01:52:06;;;;;;;52.17;38.40;;;7.90;99.90;;;;;;6328367;28;20955;-64
2021/10/30 01:55:10;;;;;;;58.63;45.53;;;8.00;99.90;;;;;;6327193;28;20468;-63
2021/10/30 01:58:13;;;;;;;58.83;42.43;;;8.00;99.90;;;;;;6328131;28;20479;-64
2021/10/30 02:01:16;;;;;;;61.00;42.57;;;7.90;99.90;;;;;;6328608;28;20574;-63
2021/10/30 02:04:20;;;;;;;58.40;41.93;;;7.90;99.90;;;;;;6327749;28;20550;-63
2021/10/30 02:07:24;;;;;;;61.57;42.40;;;7.90;99.90;;;;;;6327877;28;20476;-63
2021/10/30 02:10:27;;;;;;;56.63;41.43;;;7.90;99.90;;;;;;6327908;28;20472;-63
2021/10/30 02:13:31;;;;;;;54.57;40.67;;;7.90;99.90;;;;;;6327238;28;20816;-63
2021/10/30 02:16:34;;;;;;;52.83;39.80;;;7.80;99.90;;;;;;6328383;28;20483;-63
2021/10/30 02:19:38;;;;;;;54.77;42.73;;;7.80;99.90;;;;;;6327169;28;20479;-63
2021/10/30 02:22:43;;;;;;;61.10;42.03;;;7.70;99.90;;;;;;6327776;28;20468;-63
2021/10/30 02:25:46;;;;;;;51.90;40.17;;;7.70;99.90;;;;;;6327787;28;20468;-63
2021/10/30 02:28:49;;;;;;;57.73;40.63;;;7.80;99.90;;;;;;6328038;28;20476;-63
2021/10/30 02:31:52;;;;;;;53.17;40.73;;;7.80;99.90;;;;;;6328958;28;20472;-63
2021/10/30 02:34:55;;;;;;;50.97;40.80;;;7.90;99.90;;;;;;6328972;28;20507;-63
2021/10/30 02:38:00;;;;;;;54.03;40.57;;;7.90;99.90;;;;;;6326890;28;20468;-63
2021/10/30 02:41:03;;;;;;;55.70;41.93;;;7.90;99.90;;;;;;6327126;28;20480;-63
2021/10/30 02:44:06;;;;;;;58.50;39.30;;;7.90;99.90;;;;;;6327267;28;20476;-63
2021/10/30 02:47:10;;;;;;;56.73;40.07;;;7.90;99.90;;;;;;6327333;28;20479;-63
2021/10/30 02:50:13;;;;;;;60.63;42.50;;;7.80;99.90;;;;;;6326769;28;20597;-63
2021/10/30 02:53:17;;;;;;;50.40;38.90;;;7.70;99.90;;;;;;6316804;28;20533;-63
2021/10/30 02:56:20;;;;;;;56.80;39.83;;;7.60;99.90;;;;;;6325399;28;20488;-63
2021/10/30 02:59:23;;;;;;;52.17;38.40;;;7.50;99.90;;;;;;6327019;28;20479;-64
2021/10/30 03:02:27;;;;;;;55.70;41.10;;;7.50;99.90;;;;;;6326640;28;20447;-64
2021/10/30 03:05:30;;;;;;;62.73;42.67;;;7.30;99.90;;;;;;6326716;28;20928;-64
2021/10/30 03:08:35;;;;;;;60.43;43.80;;;7.30;99.90;;;;;;6326733;28;20464;-63
2021/10/30 03:11:39;;;;;;;55.50;40.60;;;7.30;99.90;;;;;;6326643;28;20452;-63
2021/10/30 03:14:42;;;;;;;52.27;38.97;;;7.30;99.90;;;;;;6326262;28;20900;-63
2021/10/30 03:17:46;;;;;;;54.17;38.47;;;7.30;99.90;;;;;;6326648;28;20460;-63
2021/10/30 03:20:50;;;;;;;50.70;40.30;;;7.30;99.90;;;;;;6326890;28;20553;-63
2021/10/30 03:23:54;;;;;;;58.00;43.80;;;7.30;99.90;;;;;;6326454;28;20460;-63
2021/10/30 03:26:57;;;;;;;55.43;40.60;;;7.30;99.90;;;;;;6326504;28;20464;-64
2021/10/30 03:30:00;;;;;;;57.33;42.43;;;7.40;99.90;;;;;;6326166;28;20487;-65
2021/10/30 03:33:04;;;;;;;53.27;40.90;;;7.50;99.90;;;;;;6326933;28;20491;-65
2021/10/30 03:36:07;;;;;;;59.30;42.50;;;7.50;99.90;;;;;;6326869;28;20464;-65
2021/10/30 03:39:11;;;;;;;55.67;41.33;;;7.60;99.90;;;;;;6326800;28;20468;-64
2021/10/30 03:42:14;;;;;;;52.30;40.07;;;7.70;99.90;;;;;;6326488;28;20944;-64
2021/10/30 03:45:18;;;;;;;54.00;41.47;;;7.70;99.90;;;;;;6325909;28;20472;-64
2021/10/30 03:48:21;;;;;;;47.70;38.37;;;7.80;99.90;;;;;;6326019;28;20476;-65
2021/10/30 03:51:24;;;;;;;46.23;35.37;;;7.80;99.90;;;;;;6326058;28;20464;-64
2021/10/30 03:54:29;;;;;;;47.70;37.53;;;7.80;99.90;;;;;;6320778;28;20803;-65
2021/10/30 03:57:32;;;;;;;52.50;39.00;;;7.80;99.90;;;;;;6325906;28;20483;-66
2021/10/30 04:00:35;;;;;;;52.10;39.33;;;7.80;99.90;;;;;;6325167;28;20533;-66
2021/10/30 04:03:38;;;;;;;49.60;37.43;;;7.70;99.90;;;;;;6324866;28;20912;-66
2021/10/30 04:06:42;;;;;;;54.93;39.33;;;7.70;99.90;;;;;;6325106;28;20817;-66
2021/10/30 04:09:46;;;;;;;45.73;36.87;;;7.70;99.90;;;;;;6325567;28;20472;-65
2021/10/30 04:12:49;;;;;;;46.90;34.83;;;7.60;99.90;;;;;;6325145;28;20792;-65
2021/10/30 04:15:52;;;;;;;45.13;36.10;;;7.60;99.90;;;;;;6325512;28;20479;-64
2021/10/30 04:18:57;;;;;;;45.53;35.53;;;7.60;99.90;;;;;;6324222;28;20795;-63
2021/10/30 04:22:01;;;;;;;47.90;33.97;;;7.50;99.90;;;;;;6325275;28;20472;-64
2021/10/30 04:25:06;;;;;;;43.50;34.03;;;7.40;99.90;;;;;;6324739;28;20539;-64
2021/10/30 04:28:09;;;;;;;41.27;31.20;;;7.40;99.90;;;;;;6324849;28;20468;-63
2021/10/30 04:31:19;;;;;;;40.60;32.37;;;7.30;99.90;;;;;;6325403;28;20460;-65
2021/10/30 04:34:30;;;;;;;44.67;34.23;;;7.20;99.90;;;;;;6325059;28;20476;-65
2021/10/30 04:37:34;;;;;;;42.07;33.47;;;7.10;99.90;;;;;;6325008;28;20476;-64
2021/10/30 04:40:39;;;;;;;40.67;33.00;;;7.00;99.90;;;;;;6324857;28;20480;-64
2021/10/30 04:43:42;;;;;;;37.80;31.70;;;7.00;99.90;;;;;;6324737;28;20491;-64
2021/10/30 04:46:45;;;;;;;42.27;34.03;;;6.90;99.90;;;;;;6324737;28;20472;-64
2021/10/30 04:49:50;;;;;;;47.20;34.70;;;6.90;99.90;;;;;;6324377;28;20482;-63
2021/10/30 04:52:53;;;;;;;44.90;35.23;;;6.80;99.90;;;;;;6325020;28;20476;-64
2021/10/30 04:55:58;;;;;;;41.47;33.27;;;6.70;99.90;;;;;;6324637;28;20487;-64
2021/10/30 04:59:01;;;;;;;38.97;32.77;;;6.60;99.90;;;;;;6324545;28;20998;-65
2021/10/30 05:02:04;;;;;;;41.83;33.30;;;6.50;99.90;;;;;;6324117;28;20479;-65
2021/10/30 05:05:08;;;;;;;43.13;34.53;;;6.50;99.90;;;;;;6324780;28;20472;-66
2021/10/30 05:08:11;;;;;;;43.60;35.00;;;6.40;99.90;;;;;;6324557;28;20476;-64
2021/10/30 05:11:16;;;;;;;42.50;35.63;;;6.40;99.90;;;;;;6324487;28;20479;-63
2021/10/30 05:14:19;;;;;;;41.47;32.90;;;6.40;99.90;;;;;;6324246;28;20459;-64
2021/10/30 05:17:22;;;;;;;38.27;31.77;;;6.40;99.90;;;;;;6324636;28;20476;-65
2021/10/30 05:20:25;;;;;;;37.33;29.60;;;6.40;99.90;;;;;;6325062;28;20467;-64
2021/10/30 05:23:28;;;;;;;38.17;30.97;;;6.30;99.90;;;;;;6324520;28;20452;-66
2021/10/30 05:26:33;;;;;;;36.27;30.67;;;6.40;99.90;;;;;;6324444;28;20440;-64
2021/10/30 05:29:36;;;;;;;38.70;32.10;;;6.30;99.90;;;;;;6327334;28;20468;-65
2021/10/30 05:32:39;;;;;;;34.67;30.40;;;6.20;99.90;;;;;;6329802;28;20463;-65
2021/10/30 05:35:42;;;;;;;39.67;30.63;;;6.20;99.90;;;;;;6328877;28;20456;-65
2021/10/30 05:38:49;;;;;;;38.23;32.17;;;6.10;99.90;;;;;;6328661;28;20468;-65
2021/10/30 05:41:53;;;;;;;36.77;31.37;;;6.00;99.90;;;;;;6329280;28;20467;-66
2021/10/30 05:44:57;;;;;;;37.33;31.90;;;5.90;99.90;;;;;;6328807;28;20464;-65
2021/10/30 05:48:00;;;;;;;37.37;31.13;;;5.90;99.90;;;;;;6328835;28;20460;-64
2021/10/30 05:51:05;;;;;;;37.90;31.80;;;6.00;99.90;;;;;;6328392;28;20472;-65
2021/10/30 05:54:08;;;;;;;33.80;28.47;;;5.90;99.90;;;;;;6328426;28;20472;-64
2021/10/30 05:57:12;;;;;;;39.67;31.50;;;5.90;99.90;;;;;;6328067;28;20464;-65
2021/10/30 06:00:16;;;;;;;38.93;31.03;;;5.90;99.90;;;;;;6327950;28;20468;-64
2021/10/30 06:03:20;;;;;;;37.07;30.53;;;5.90;99.90;;;;;;6318335;28;20487;-63
2021/10/30 06:06:23;;;;;;;33.30;27.57;;;5.90;99.90;;;;;;6327959;28;20472;-64
2021/10/30 06:09:26;;;;;;;35.60;28.80;;;6.00;99.90;;;;;;6328166;28;20486;-65
2021/10/30 06:12:38;;;;;;;35.80;30.03;;;6.00;99.90;;;;;;6328305;28;20956;-65
2021/10/30 06:15:41;;;;;;;38.60;31.40;;;6.00;99.90;;;;;;6327918;28;20472;-65
2021/10/30 06:18:45;;;;;;;40.83;30.47;;;6.10;99.90;;;;;;6327787;28;20472;-64
2021/10/30 06:21:48;;;;;;;36.60;28.20;;;6.10;99.90;;;;;;6327652;28;20798;-64
2021/10/30 06:24:51;;;;;;;29.93;26.70;;;6.20;99.90;;;;;;6327842;28;20481;-64
2021/10/30 06:27:56;;;;;;;31.70;28.13;;;6.20;99.90;;;;;;6327735;28;20464;-64
2021/10/30 06:30:59;;;;;;;27.43;24.50;;;6.20;99.90;;;;;;6328040;28;20491;-64
2021/10/30 06:34:03;;;;;;;29.00;26.00;;;6.30;99.90;;;;;;6328133;28;20463;-65
2021/10/30 06:37:06;;;;;;;29.70;26.23;;;6.40;99.90;;;;;;6327513;28;20479;-65
2021/10/30 06:40:12;;;;;;;30.50;27.20;;;6.40;99.90;;;;;;6326724;28;20948;-64
2021/10/30 06:43:16;;;;;;;29.13;26.07;;;6.40;99.90;;;;;;6327229;28;20476;-63
2021/10/30 06:46:19;;;;;;;30.27;26.07;;;6.40;99.90;;;;;;6327028;28;20483;-63
2021/10/30 06:49:24;;;;;;;35.70;28.30;;;6.50;99.90;;;;;;6327445;28;20805;-63
2021/10/30 06:52:36;;;;;;;33.33;26.83;;;6.50;99.90;;;;;;6327209;28;20975;-65
2021/10/30 06:55:41;;;;;;;32.77;28.27;;;6.50;99.90;;;;;;6326959;28;20535;-66
2021/10/30 06:58:46;;;;;;;33.90;27.50;;;6.50;99.90;;;;;;6327092;28;20986;-66
2021/10/30 07:01:49;;;;;;;34.83;27.77;;;6.40;99.90;;;;;;6327171;28;20468;-66
2021/10/30 07:04:53;;;;;;;34.77;28.67;;;6.40;99.90;;;;;;6327015;28;20468;-66
2021/10/30 07:07:56;;;;;;;34.60;28.50;;;6.30;99.90;;;;;;6326838;28;20464;-66
2021/10/30 07:10:59;;;;;;;36.90;30.50;;;6.40;99.90;;;;;;6327044;28;20570;-66
2021/10/30 07:14:04;;;;;;;37.40;30.23;;;6.50;99.90;;;;;;6326397;28;20943;-64
2021/10/30 07:17:07;;;;;;;34.50;28.33;;;6.70;99.90;;;;;;6326601;28;20534;-64
2021/10/30 07:20:11;;;;;;;34.00;29.37;;;6.80;99.90;;;;;;6326571;28;20475;-63
2021/10/30 07:23:17;;;;;;;35.07;29.00;;;6.90;99.90;;;;;;6327009;28;20738;-65
2021/10/30 07:26:20;;;;;;;39.97;30.67;;;7.00;99.90;;;;;;6327205;28;20476;-66
2021/10/30 07:29:24;;;;;;;39.73;31.30;;;7.10;99.90;;;;;;6326073;28;20456;-63
2021/10/30 07:32:28;;;;;;;41.10;31.60;;;7.30;99.90;;;;;;6327079;28;20451;-67
2021/10/30 07:35:31;;;;;;;43.27;34.30;;;7.40;99.90;;;;;;6326399;28;20440;-66
2021/10/30 07:38:34;;;;;;;43.87;32.10;;;7.60;99.90;;;;;;6326289;28;20491;-66
2021/10/30 07:41:37;;;;;;;41.03;31.43;;;7.80;99.90;;;;;;6326261;28;20440;-65
2021/10/30 07:44:42;;;;;;;40.53;30.23;;;8.00;99.90;;;;;;6326509;28;20456;-63
2021/10/30 07:47:45;;;;;;;40.80;31.73;;;8.30;99.90;;;;;;6326671;28;20471;-66
2021/10/30 07:50:48;;;;;;;41.83;32.80;;;8.50;99.90;;;;;;6325990;28;20526;-66
2021/10/30 07:53:51;;;;;;;47.83;34.30;;;8.80;99.90;;;;;;6325084;28;20472;-66
2021/10/30 07:56:55;;;;;;;41.80;33.50;;;9.00;99.90;;;;;;6326157;28;20472;-66
2021/10/30 07:59:59;;;;;;;41.13;32.00;;;9.10;99.90;;;;;;6325318;28;20476;-66
2021/10/30 08:03:02;;;;;;;43.63;34.87;;;9.20;99.90;;;;;;6326391;28;20815;-66
2021/10/30 08:06:06;;;;;;;42.83;34.17;;;9.50;99.30;;;;;;6325693;28;20469;-66
2021/10/30 08:09:09;;;;;;;46.57;34.70;;;9.80;99.20;;;;;;6325265;28;20782;-66
2021/10/30 08:12:12;;;;;;;50.33;37.17;;;10.00;97.60;;;;;;6315368;28;20464;-66
2021/10/30 08:15:18;;;;;;;52.77;37.57;;;10.20;97.90;;;;;;6325843;28;20483;-66
2021/10/30 08:18:21;;;;;;;48.37;36.10;;;10.50;96.90;;;;;;6326783;28;20477;-67
2021/10/30 08:21:25;;;;;;;65.33;44.80;;;10.90;96.70;;;;;;6324372;28;20955;-66
2021/10/30 08:24:29;;;;;;;44.73;34.23;;;11.20;95.50;;;;;;6323139;28;20468;-66
2021/10/30 08:27:32;;;;;;;46.37;36.30;;;11.50;94.90;;;;;;6323282;28;20463;-66
2021/10/30 08:30:37;;;;;;;45.33;36.10;;;11.80;94.80;;;;;;6323209;28;20485;-67
2021/10/30 08:33:40;;;;;;;57.20;43.40;;;12.00;93.90;;;;;;6322676;28;20464;-67
2021/10/30 08:36:43;;;;;;;57.10;40.20;;;12.10;93.00;;;;;;6323392;28;20483;-66
2021/10/30 08:39:47;;;;;;;52.70;39.07;;;12.00;93.20;;;;;;6323115;28;20487;-65
2021/10/30 08:42:51;;;;;;;56.60;40.17;;;12.10;92.80;;;;;;6323101;28;20993;-67
2021/10/30 08:45:58;;;;;;;52.40;39.07;;;11.90;93.10;;;;;;6325352;28;20540;-67
2021/10/30 08:49:02;;;;;;;51.10;38.43;;;11.70;93.00;;;;;;6325352;28;21058;-66
2021/10/30 08:52:07;;;;;;;65.50;47.73;;;11.90;93.10;;;;;;6324676;28;20483;-66
2021/10/30 08:55:11;;;;;;;41.93;34.50;;;12.30;93.30;;;;;;6324549;28;20456;-65
2021/10/30 08:58:16;;;;;;;67.83;47.60;;;14.00;91.50;;;;;;6323246;28;21034;-65
2021/10/30 09:01:21;;;;;;;44.40;35.60;;;14.40;89.50;;;;;;6323977;28;20490;-66
2021/10/30 09:04:24;;;;;;;60.67;44.77;;;16.40;81.30;;;;;;6323615;28;20483;-64
2021/10/30 09:07:28;;;;;;;50.67;39.20;;;18.60;71.70;;;;;;6329496;28;20456;-65
2021/10/30 09:10:35;;;;;;;51.20;42.53;;;18.60;65.10;;;;;;6329030;28;20468;-65
2021/10/30 09:13:39;;;;;;;40.90;34.47;;;17.70;65.40;;;;;;6332562;28;20464;-65
2021/10/30 09:16:43;;;;;;;45.03;39.30;;;16.50;68.00;;;;;;6325380;27;20487;-65
2021/10/30 09:19:48;;;;;;;40.00;34.83;;;15.70;70.60;;;;;;6331854;28;20997;-65
2021/10/30 09:22:55;;;;;;;38.70;34.53;;;15.50;72.60;;;;;;6329112;28;20978;-65
2021/10/30 09:26:02;;;;;;;47.70;40.13;;;18.00;69.40;;;;;;6332401;28;20475;-64
2021/10/30 09:29:09;;;;;;;39.40;35.30;;;21.50;59.00;;;;;;6330493;28;20681;-65
2021/10/30 09:32:14;;;;;;;40.90;36.93;;;25.10;49.10;;;;;;6328780;28;20225;-68
2021/10/30 09:35:24;;;;;;;46.47;42.10;;;27.90;41.30;;;;;;6330251;28;20213;-67
2021/10/30 09:38:31;;;;;;;41.97;38.13;;;28.50;36.70;;;;;;6328850;28;20221;-69
2021/10/30 09:41:36;;;;;;;50.57;45.80;;;30.50;34.10;;;;;;6327616;28;20267;-68
2021/10/30 09:44:39;;;;;;;46.33;42.23;;;31.70;30.30;;;;;;6329020;28;20208;-67
2021/10/30 09:48:01;;;;;;;42.38;38.85;;;32.80;28.40;;;;;;6330802;28;20232;-67
2021/10/30 09:51:04;;;;;;;43.83;39.72;;;33.40;27.60;;;;;;6325497;28;20226;-67
2021/10/30 09:54:07;;;;;;;41.80;38.30;;;34.00;27.00;;;;;;6327052;28;20221;-67
2021/10/30 09:57:14;;;;;;;41.67;38.17;;;35.20;25.60;;;;;;6327869;28;20229;-68
2021/10/30 10:00:17;;;;;;;43.55;40.05;;;34.90;25.60;;;;;;6328472;28;20242;-67
2021/10/30 10:03:25;;;;;;;42.20;38.80;;;35.60;24.70;;;;;;6328260;28;20229;-67
2021/10/30 10:06:33;;;;;;;42.33;38.78;;;36.20;24.00;;;;;;6322974;28;20668;-67
2021/10/30 10:09:36;;;;;;;41.15;37.85;;;36.80;23.40;;;;;;6327503;28;20245;-69
2021/10/30 10:12:40;;;;;;;42.40;38.95;;;36.80;23.20;;;;;;6327533;28;20244;-70
2021/10/30 10:15:43;;;;;;;39.17;36.08;;;37.00;22.70;;;;;;6314346;28;20226;-69
2021/10/30 10:18:49;;;;;;;41.65;38.15;;;36.30;23.30;;;;;;6297735;28;20234;-69
2021/10/30 10:21:54;;;;;;;39.65;36.40;;;37.10;22.60;;;;;;6320672;28;20267;-69
2021/10/30 10:25:23;;;;;;;38.60;35.53;;;37.80;22.00;;;;;;6328335;28;20221;-68
2021/10/30 10:28:32;;;;;;;39.05;35.92;;;38.60;21.40;;;;;;6327222;28;20251;-69
2021/10/30 10:31:48;;;;;;;39.58;36.47;;;38.90;21.20;;;;;;6327374;28;20240;-69
2021/10/30 10:35:03;;;;;;;39.53;36.22;;;39.10;20.80;;;;;;6326554;28;20234;-69
2021/10/30 10:38:06;;;;;;;37.45;34.55;;;39.70;20.50;;;;;;6327402;28;20226;-70
2021/10/30 10:41:50;;;;;;;39.53;36.60;;;38.90;20.80;;;;;;6326913;28;20700;-68
2021/10/30 10:44:56;;;;;;;38.25;35.25;;;39.00;20.50;;;;;;6327134;28;20226;-68
2021/10/30 10:48:05;;;;;;;37.10;34.30;;;39.20;20.50;;;;;;6326844;28;20210;-67
2021/10/30 10:51:22;;;;;;;38.42;35.47;;;39.90;20.10;;;;;;6326957;28;20238;-67
2021/10/30 10:54:25;;;;;;;37.15;34.35;;;39.10;20.20;;;;;;6326751;28;20294;-66
2021/10/30 10:57:30;;;;;;;37.55;34.53;;;37.50;21.50;;;;;;6326803;28;20240;-67
2021/10/30 11:00:34;;;;;;;37.10;34.08;;;37.40;21.70;;;;;;6326620;28;20304;-67
2021/10/30 11:03:43;;;;;;;35.85;33.08;;;38.90;20.80;;;;;;6326800;28;20237;-67
2021/10/30 11:06:48;;;;;;;35.83;32.95;;;39.90;20.10;;;;;;6326734;28;20226;-67
2021/10/30 11:09:55;;;;;;;36.85;33.85;;;40.90;19.40;;;;;;6327229;28;20233;-70
2021/10/30 11:13:05;;;;;;;38.90;35.97;;;41.00;19.40;;;;;;6326401;28;20585;-69
2021/10/30 11:16:12;;;;;;;35.33;32.72;;;41.00;19.00;;;;;;6326383;28;20234;-68
2021/10/30 11:19:25;;;;;;;35.55;32.70;;;41.40;18.80;;;;;;6326529;28;20253;-67
2021/10/30 11:22:30;;;;;;;44.30;40.75;;;41.30;19.00;;;;;;6327010;28;20231;-66
2021/10/30 11:25:33;;;;;;;35.70;33.00;;;41.10;18.90;;;;;;6326369;28;20591;-65
2021/10/30 11:28:37;;;;;;;36.33;33.58;;;40.30;19.60;;;;;;6325969;28;20701;-68
2021/10/30 11:31:42;;;;;;;33.35;30.85;;;40.90;18.90;;;;;;6325860;28;20221;-68
2021/10/30 11:34:53;;;;;;;33.92;31.35;;;41.20;19.00;;;;;;6330851;28;20254;-66
2021/10/30 11:38:11;;;;;;;32.65;30.05;;;41.70;18.60;;;;;;6328152;28;20226;-65
2021/10/30 11:41:16;;;;;;;34.22;31.67;;;41.00;19.00;;;;;;6326193;28;20240;-66
2021/10/30 11:44:21;;;;;;;32.13;29.73;;;41.40;18.70;;;;;;6325440;28;20237;-66
2021/10/30 11:47:26;;;;;;;29.20;27.00;;;42.10;18.60;;;;;;6325400;27;20240;-65
2021/10/30 11:50:29;;;;;;;28.33;26.33;;;41.70;18.40;;;;;;6326063;28;20219;-66
2021/10/30 11:53:34;;;;;;;31.23;28.73;;;41.40;18.40;;;;;;6325556;28;20209;-66
2021/10/30 11:56:37;;;;;;;28.88;26.77;;;41.60;18.30;;;;;;6325223;28;20647;-66
2021/10/30 11:59:42;;;;;;;26.70;24.70;;;42.30;18.00;;;;;;6325694;28;20226;-66
2021/10/30 12:03:01;;;;;;;26.38;24.38;;;42.30;17.80;;;;;;6325300;28;20656;-66
2021/10/30 12:06:04;;;;;;;25.85;23.77;;;42.40;17.50;;;;;;6315718;28;20245;-65
2021/10/30 12:09:33;;;;;;;27.67;25.58;;;41.80;17.70;;;;;;6325310;28;20227;-66
2021/10/30 12:12:37;;;;;;;27.25;25.25;;;42.00;17.80;;;;;;6320028;28;20689;-65
2021/10/30 12:15:41;;;;;;;24.92;23.02;;;41.80;17.40;;;;;;6350613;28;20240;-66
2021/10/30 12:18:44;;;;;;;25.55;23.55;;;41.20;17.90;;;;;;6350286;28;20229;-66
2021/10/30 12:21:47;;;;;;;24.27;22.38;;;41.80;17.70;;;;;;6350187;28;20229;-66
2021/10/30 12:25:03;;;;;;;25.25;23.42;;;40.70;18.10;;;;;;6350700;28;20305;-67
2021/10/30 12:28:06;;;;;;;25.33;23.50;;;41.20;18.00;;;;;;6345774;28;20229;-69
2021/10/30 12:31:13;;;;;;;25.73;23.73;;;41.30;18.00;;;;;;6350555;28;20248;-69
2021/10/30 12:34:24;;;;;;;24.00;22.10;;;41.30;17.80;;;;;;6349940;28;20228;-69
2021/10/30 12:37:29;;;;;;;23.75;21.88;;;40.40;18.50;;;;;;6350297;28;20229;-69
2021/10/30 12:40:43;;;;;;;22.63;20.75;;;39.90;18.70;;;;;;6349795;28;20233;-69
2021/10/30 12:43:48;;;;;;;23.42;21.70;;;39.70;18.90;;;;;;6350060;28;20220;-69
2021/10/30 12:46:54;;;;;;;25.00;23.10;;;39.30;19.10;;;;;;6349860;28;20229;-68
2021/10/30 12:49:59;;;;;;;25.38;23.48;;;38.10;19.80;;;;;;6350046;28;20228;-68
2021/10/30 12:53:05;;;;;;;25.67;23.67;;;35.70;21.50;;;;;;6349634;28;20229;-69
2021/10/30 12:56:11;;;;;;;26.10;23.92;;;34.90;22.30;;;;;;6349887;28;20228;-69
2021/10/30 12:59:14;;;;;;;26.02;24.02;;;34.90;22.30;;;;;;6349445;28;20243;-65
2021/10/30 13:02:25;;;;;;;25.98;23.95;;;35.00;22.40;;;;;;6350072;28;20224;-64
2021/10/30 13:05:28;;;;;;;23.92;21.92;;;36.10;21.90;;;;;;6325934;27;20547;-65
2021/10/30 13:08:31;;;;;;;26.20;24.00;;;37.10;21.40;;;;;;6324339;28;20237;-67
2021/10/30 13:11:36;;;;;;;25.55;23.55;;;36.90;21.20;;;;;;6322660;28;20245;-68
2021/10/30 13:14:40;;;;;;;24.33;22.33;;;36.60;21.60;;;;;;6325087;28;20206;-69
2021/10/30 13:17:45;;;;;;;26.27;24.20;;;36.90;21.40;;;;;;6323972;28;20221;-68
2021/10/30 13:20:48;;;;;;;25.27;23.17;;;36.40;21.50;;;;;;6323833;28;20233;-68
2021/10/30 13:23:54;;;;;;;25.88;23.85;;;36.10;21.90;;;;;;6323956;28;20233;-68
2021/10/30 13:26:58;;;;;;;25.20;23.13;;;35.20;22.40;;;;;;6323092;28;20233;-68
2021/10/30 13:30:03;;;;;;;23.27;21.38;;;35.10;22.60;;;;;;6314911;27;20579;-68
2021/10/30 13:33:11;;;;;;;24.10;22.10;;;35.70;22.40;;;;;;6324231;28;20226;-69
2021/10/30 13:36:14;;;;;;;24.33;22.42;;;36.10;22.20;;;;;;6324164;28;20229;-68
2021/10/30 13:39:17;;;;;;;24.50;22.40;;;35.40;22.30;;;;;;6324011;28;20312;-68
2021/10/30 13:42:22;;;;;;;24.75;22.85;;;34.60;23.30;;;;;;6324505;28;20233;-69
2021/10/30 13:45:25;;;;;;;24.42;22.45;;;33.40;24.30;;;;;;6324232;28;20244;-68
2021/10/30 13:48:28;;;;;;;26.93;24.63;;;31.80;25.70;;;;;;6322806;28;20236;-68
2021/10/30 13:51:32;;;;;;;26.67;24.37;;;29.40;27.80;;;;;;6326574;28;20528;-68
2021/10/30 13:54:35;;;;;;;25.60;23.50;;;26.20;32.00;;;;;;6328822;28;20225;-68
2021/10/30 13:57:39;;;;;;;25.77;23.43;;;24.80;34.30;;;;;;6328790;28;20233;-68
2021/10/30 14:00:43;;;;;;;26.57;23.87;;;23.70;36.20;;;;;;6328753;28;20230;-68
2021/10/30 14:03:49;;;;;;;26.73;24.17;;;22.10;38.70;;;;;;6328359;28;20545;-68
2021/10/30 14:06:52;;;;;;;25.30;22.90;;;21.00;41.10;;;;;;6318007;28;20226;-67
2021/10/30 14:09:55;;;;;;;24.93;22.43;;;20.20;42.70;;;;;;6327914;28;20226;-67
2021/10/30 14:13:00;;;;;;;24.57;22.20;;;19.30;44.20;;;;;;6327450;28;20237;-67
2021/10/30 14:16:04;;;;;;;24.37;21.87;;;18.20;46.10;;;;;;6326803;28;20241;-66
2021/10/30 14:19:08;;;;;;;23.73;21.40;;;17.70;47.40;;;;;;6325164;28;20654;-67
2021/10/30 14:22:11;;;;;;;24.03;21.70;;;17.40;48.40;;;;;;6328259;28;20472;-66
2021/10/30 14:25:14;;;;;;;23.83;21.43;;;17.10;49.10;;;;;;6327895;28;20998;-67
2021/10/30 14:28:20;;;;;;;25.50;22.80;;;16.90;49.60;;;;;;6327004;28;20482;-67
2021/10/30 14:31:24;;;;;;;24.60;22.10;;;16.70;50.50;;;;;;6327412;28;20814;-67
2021/10/30 14:34:28;;;;;;;22.83;20.33;;;16.50;51.70;;;;;;6323083;28;20774;-67
2021/10/30 14:37:31;;;;;;;24.00;21.60;;;16.30;51.90;;;;;;6328002;27;20468;-67
2021/10/30 14:40:34;;;;;;;23.80;21.30;;;16.10;52.80;;;;;;6327194;28;20488;-67
2021/10/30 14:43:40;;;;;;;26.47;23.63;;;15.80;53.40;;;;;;6327535;28;20472;-67
2021/10/30 14:46:43;;;;;;;25.00;22.30;;;15.70;54.10;;;;;;6327427;28;20472;-67
2021/10/30 14:49:46;;;;;;;23.60;20.13;;;15.50;55.00;;;;;;6326494;28;20486;-68
2021/10/30 14:52:50;;;;;;;22.90;20.40;;;15.30;55.90;;;;;;6327042;28;20476;-70
2021/10/30 14:55:53;;;;;;;23.30;20.80;;;15.20;56.60;;;;;;6326489;28;20810;-69
2021/10/30 14:58:58;;;;;;;22.33;20.10;;;15.00;57.50;;;;;;6326542;28;20472;-69
2021/10/30 15:02:01;;;;;;;22.60;20.20;;;14.90;58.20;;;;;;6326119;28;20974;-69
2021/10/30 15:05:05;;;;;;;23.57;21.07;;;14.80;58.70;;;;;;6322360;28;20469;-69
2021/10/30 15:08:09;;;;;;;24.00;20.50;;;14.40;59.50;;;;;;6322191;28;20464;-69
2021/10/30 15:11:12;;;;;;;23.83;21.20;;;14.10;60.90;;;;;;6326457;28;20525;-68
2021/10/30 15:14:19;;;;;;;23.53;20.97;;;13.90;62.60;;;;;;6350305;28;20474;-69
2021/10/30 15:17:23;;;;;;;24.93;22.27;;;13.80;63.50;;;;;;6351435;28;20783;-69
2021/10/30 15:20:26;;;;;;;27.13;22.03;;;13.60;64.70;;;;;;6330562;28;20499;-68
2021/10/30 15:23:30;;;;;;;25.27;22.13;;;13.50;65.60;;;;;;6325096;28;20444;-64
2021/10/30 15:26:53;;;;;;;26.60;23.20;;;13.30;66.80;;;;;;6300717;28;20548;-68
2021/10/30 15:29:58;;;;;;;26.37;21.17;;;13.30;68.30;;;;;;6309792;28;20486;-68
2021/10/30 15:33:01;;;;;;;23.67;21.20;;;13.30;69.10;;;;;;6328873;27;20471;-67
2021/10/30 15:36:09;;;;;;;22.73;20.33;;;13.10;70.60;;;;;;6330772;28;20480;-68
2021/10/30 15:39:12;;;;;;;23.90;21.40;;;13.10;71.90;;;;;;6324860;28;20469;-68
2021/10/30 15:42:18;;;;;;;25.63;22.93;;;13.10;72.40;;;;;;6326152;27;20480;-67
2021/10/30 15:45:22;;;;;;;25.30;22.30;;;13.10;73.20;;;;;;6326214;28;20471;-68